Time;durP1;ratioP1;P1;durP2;ratioP2;P2;SDS_P1;SDS_P2;PMS_P1;PMS_P2;Temp;Humidity;BMP_temperature;BMP_pressure;BME280_temperature;BME280_humidity;BME280_pressure;Samples;Min_cycle;Max_cycle;Signal;HPM_P1;HPM_P2
2023/12/16 00:00:31;;;;;;;15.13;6.43;;;;;;;7.00;91.01;103799.63;5073887;28;20103;-59
2023/12/16 00:02:56;;;;;;;18.38;6.18;;;;;;;7.01;90.53;103796.13;5073604;28;20020;-58
2023/12/16 00:05:22;;;;;;;13.98;5.63;;;;;;;7.03;90.73;103807.59;5072031;28;20040;-58
2023/12/16 00:07:47;;;;;;;16.55;6.15;;;;;;;7.02;90.84;103805.81;5072889;28;20081;-59
2023/12/16 00:10:13;;;;;;;17.17;5.60;;;;;;;7.03;90.13;103799.66;5072066;28;20050;-59
2023/12/16 00:12:39;;;;;;;17.00;5.65;;;;;;;7.04;90.27;103799.66;5072138;28;20031;-58
2023/12/16 00:15:08;;;;;;;17.75;6.13;;;;;;;7.01;90.05;103817.28;5073324;28;20439;-58
2023/12/16 00:17:33;;;;;;;14.75;5.38;;;;;;;7.05;90.32;103811.09;5071193;28;20031;-58
2023/12/16 00:19:58;;;;;;;11.57;5.18;;;;;;;7.05;89.33;103809.34;5073191;28;20032;-59
2023/12/16 00:22:25;;;;;;;11.90;6.72;;;;;;;7.05;90.26;103816.41;5072816;28;20421;-58
2023/12/16 00:24:50;;;;;;;14.90;4.90;;;;;;;7.05;89.41;103811.97;5071304;28;20121;-58
2023/12/16 00:27:18;;;;;;;19.08;6.05;;;;;;;7.08;88.93;103803.16;5071911;28;20033;-58
2023/12/16 00:29:43;;;;;;;9.95;5.68;;;;;;;7.05;89.08;103801.41;5073219;28;20016;-59
2023/12/16 00:32:09;;;;;;;17.60;5.90;;;;;;;7.07;89.00;103801.41;5077543;28;20063;-58
2023/12/16 00:34:34;;;;;;;26.23;6.00;;;;;;;7.07;89.39;103795.25;5113270;28;20442;-58
2023/12/16 00:37:05;;;;;;;14.80;4.93;;;;;;;7.07;88.50;103795.25;5113152;28;20028;-58
2023/12/16 00:39:31;;;;;;;19.63;5.75;;;;;;;7.12;88.53;103801.38;5094856;28;20386;-59
2023/12/16 00:41:56;;;;;;;17.42;5.35;;;;;;;7.13;88.21;103800.53;5095259;28;20012;-58
2023/12/16 00:44:21;;;;;;;15.10;4.72;;;;;;;7.10;88.27;103788.19;5095125;28;20023;-59
2023/12/16 00:46:47;;;;;;;14.57;5.40;;;;;;;7.09;89.11;103786.44;5113244;28;20045;-58
2023/12/16 00:49:12;;;;;;;18.77;5.45;;;;;;;7.03;88.36;103771.44;5094897;28;20496;-59
2023/12/16 00:51:38;;;;;;;15.95;5.20;;;;;;;7.11;87.72;103778.47;5094926;28;20019;-59
2023/12/16 00:54:03;;;;;;;15.32;4.82;;;;;;;7.04;87.85;103775.84;5094631;28;20027;-58
2023/12/16 00:56:28;;;;;;;9.43;4.68;;;;;;;7.04;88.15;103780.25;5113175;28;20019;-58
2023/12/16 00:58:56;;;;;;;16.80;4.82;;;;;;;7.09;89.46;103794.38;5113062;28;20492;-58
2023/12/16 01:01:22;;;;;;;13.32;4.88;;;;;;;7.09;89.33;103791.72;5113391;28;20023;-58
2023/12/16 01:03:48;;;;;;;12.75;4.40;;;;;;;7.10;88.98;103787.31;5094675;28;20058;-59
2023/12/16 01:06:13;;;;;;;19.33;6.20;;;;;;;7.08;88.08;103783.75;5112983;28;20425;-58
2023/12/16 01:08:38;;;;;;;13.52;4.80;;;;;;;7.07;88.50;103784.66;5094156;28;20024;-58
2023/12/16 01:11:04;;;;;;;12.25;5.40;;;;;;;7.08;87.76;103797.00;5094830;28;20023;-58
2023/12/16 01:13:31;;;;;;;18.67;5.07;;;;;;;7.09;87.90;103798.75;5112498;28;20028;-59
2023/12/16 01:15:57;;;;;;;9.40;4.70;;;;;;;7.09;87.97;103802.31;5112788;28;20106;-58
2023/12/16 01:18:23;;;;;;;11.10;4.75;;;;;;;7.10;88.72;103798.75;5093801;28;20099;-58
2023/12/16 01:20:50;;;;;;;10.70;4.75;;;;;;;7.10;88.75;103790.81;5112665;28;20027;-58
2023/12/16 01:23:15;;;;;;;9.57;4.60;;;;;;;7.11;87.79;103787.28;5111738;28;20035;-58
2023/12/16 01:25:40;;;;;;;10.57;4.57;;;;;;;7.09;87.88;103793.47;5112336;28;20027;-58
2023/12/16 01:28:08;;;;;;;11.90;4.63;;;;;;;7.09;87.98;103798.75;5112177;28;20047;-58
2023/12/16 01:30:36;;;;;;;12.10;4.82;;;;;;;7.08;87.60;103799.66;5110282;28;20110;-58
2023/12/16 01:33:03;;;;;;;13.70;4.65;;;;;;;7.09;87.74;103790.81;5111852;28;20490;-59
2023/12/16 01:35:28;;;;;;;12.02;4.57;;;;;;;7.03;87.73;103781.13;5094054;28;20031;-58
2023/12/16 01:37:56;;;;;;;12.55;5.20;;;;;;;7.08;88.66;103789.06;5093285;28;20826;-58
2023/12/16 01:40:21;;;;;;;17.77;5.50;;;;;;;7.14;86.93;103773.16;5112459;28;20047;-58
2023/12/16 01:42:47;;;;;;;11.73;5.22;;;;;;;7.05;88.65;103772.28;5093830;28;20054;-58
2023/12/16 01:45:16;;;;;;;11.80;4.80;;;;;;;7.09;87.94;103780.22;5112333;28;20031;-59
2023/12/16 01:47:42;;;;;;;19.58;5.53;;;;;;;7.03;88.45;103779.38;5091127;28;20030;-59
2023/12/16 01:50:10;;;;;;;9.73;4.22;;;;;;;7.07;88.50;103779.38;5112270;28;20390;-58
2023/12/16 01:52:38;;;;;;;9.95;4.72;;;;;;;7.00;88.38;103774.09;5111928;28;20046;-58
2023/12/16 01:55:04;;;;;;;10.20;4.68;;;;;;;6.94;88.64;103771.44;5093976;28;20420;-58
2023/12/16 01:57:29;;;;;;;18.20;6.35;;;;;;;6.99;88.47;103785.53;5111819;28;20083;-58
2023/12/16 01:59:55;;;;;;;12.65;5.55;;;;;;;6.98;88.38;103780.25;5111897;28;20106;-59
2023/12/16 02:02:22;;;;;;;11.93;5.03;;;;;;;7.01;88.56;103789.06;5112105;28;20020;-58
2023/12/16 02:04:50;;;;;;;13.25;5.20;;;;;;;6.98;88.90;103786.41;5093205;28;20504;-59
2023/12/16 02:07:15;;;;;;;10.20;4.45;;;;;;;6.96;88.95;103784.66;5093661;28;20468;-58
2023/12/16 02:09:43;;;;;;;13.32;5.40;;;;;;;6.96;88.66;103784.66;5111266;28;20030;-58
2023/12/16 02:12:09;;;;;;;17.58;5.07;;;;;;;6.94;88.22;103781.13;5093641;28;20024;-59
2023/12/16 02:14:34;;;;;;;11.32;4.70;;;;;;;6.84;88.85;103769.66;5111470;28;20045;-59
2023/12/16 02:17:00;;;;;;;17.50;5.57;;;;;;;6.90;89.14;103784.66;5111701;28;20019;-58
2023/12/16 02:19:26;;;;;;;10.30;5.05;;;;;;;6.89;88.75;103782.91;5111259;28;20019;-58
2023/12/16 02:21:54;;;;;;;13.95;4.75;;;;;;;6.85;88.50;103784.66;5111400;28;20016;-59
2023/12/16 02:24:20;;;;;;;10.85;4.60;;;;;;;6.81;88.97;103778.47;5092674;28;20026;-58
2023/12/16 02:26:45;;;;;;;16.98;4.80;;;;;;;6.77;88.56;103784.66;5093310;28;20114;-58
2023/12/16 02:29:11;;;;;;;15.90;4.88;;;;;;;6.70;88.69;103768.78;5111301;28;20031;-58
2023/12/16 02:31:36;;;;;;;15.43;4.93;;;;;;;6.72;88.60;103781.13;5111603;28;20069;-58
2023/12/16 02:34:01;;;;;;;11.27;5.18;;;;;;;6.67;88.77;103764.38;5110988;28;20130;-58
2023/12/16 02:36:27;;;;;;;10.70;5.00;;;;;;;6.65;88.81;103776.72;5089650;28;20025;-58
2023/12/16 02:38:52;;;;;;;11.95;4.72;;;;;;;6.56;89.37;103764.38;5111023;28;20023;-59
2023/12/16 02:41:21;;;;;;;14.35;5.25;;;;;;;6.57;89.13;103778.47;5093217;28;20028;-58
2023/12/16 02:43:46;;;;;;;13.90;4.90;;;;;;;6.51;89.66;103782.00;5111225;28;20023;-58
2023/12/16 02:46:15;;;;;;;15.10;5.15;;;;;;;6.48;90.89;103786.41;5111480;28;20039;-59
2023/12/16 02:48:40;;;;;;;13.63;5.18;;;;;;;6.45;91.73;103787.28;5110842;28;20015;-58
2023/12/16 02:51:06;;;;;;;15.63;4.72;;;;;;;6.43;90.34;103794.31;5111318;28;20023;-58
2023/12/16 02:53:31;;;;;;;11.77;4.60;;;;;;;6.42;91.01;103792.56;5110910;28;20146;-58
2023/12/16 02:55:56;;;;;;;13.38;5.25;;;;;;;6.42;91.49;103789.03;5110852;28;20044;-59
2023/12/16 02:58:22;;;;;;;14.55;5.10;;;;;;;6.43;90.55;103794.31;5110976;28;20030;-58
2023/12/16 03:00:47;;;;;;;13.95;4.80;;;;;;;6.42;91.41;103784.63;5111103;28;20115;-58
2023/12/16 03:03:12;;;;;;;12.32;4.72;;;;;;;6.41;90.91;103774.91;5088579;28;20023;-59
2023/12/16 03:05:38;;;;;;;15.85;5.05;;;;;;;6.43;90.74;103775.81;5092986;28;20071;-59
2023/12/16 03:08:03;;;;;;;14.77;5.53;;;;;;;6.41;90.58;103771.41;5092237;28;20482;-59
2023/12/16 03:10:29;;;;;;;14.63;5.10;;;;;;;6.41;90.73;103772.28;5110785;28;20024;-58
2023/12/16 03:12:56;;;;;;;12.27;4.63;;;;;;;6.38;90.39;103766.97;5092133;28;20055;-59
2023/12/16 03:15:21;;;;;;;12.45;5.32;;;;;;;6.38;90.37;103777.56;5110922;28;20386;-58
2023/12/16 03:17:46;;;;;;;15.10;5.18;;;;;;;6.37;90.88;103767.88;5092276;28;20028;-59
2023/12/16 03:20:12;;;;;;;14.60;5.00;;;;;;;6.35;90.36;103765.25;5111084;28;20426;-59
2023/12/16 03:22:37;;;;;;;11.52;4.50;;;;;;;6.35;91.24;103772.25;5110503;28;20016;-58
2023/12/16 03:25:03;;;;;;;12.77;4.80;;;;;;;6.36;91.19;103768.75;5092470;28;20024;-58
2023/12/16 03:27:28;;;;;;;12.45;5.35;;;;;;;6.39;89.97;103771.41;5110812;28;20291;-59
2023/12/16 03:29:54;;;;;;;14.90;5.70;;;;;;;6.36;90.63;103774.94;5110629;28;20049;-59
2023/12/16 03:32:19;;;;;;;12.10;4.68;;;;;;;6.38;90.79;103774.91;5110647;28;20107;-58
2023/12/16 03:34:45;;;;;;;15.43;5.78;;;;;;;6.37;90.91;103776.69;5110637;28;20040;-59
2023/12/16 03:37:12;;;;;;;11.40;5.43;;;;;;;6.36;90.87;103771.41;5110723;28;20023;-58
2023/12/16 03:39:39;;;;;;;13.07;5.05;;;;;;;6.37;90.34;103768.75;5092193;28;20051;-58
2023/12/16 03:42:06;;;;;;;12.30;4.80;;;;;;;6.41;90.76;103781.97;5092572;28;20475;-58
2023/12/16 03:44:31;;;;;;;16.67;6.10;;;;;;;6.40;90.73;103781.09;5092600;28;20032;-58
2023/12/16 03:46:56;;;;;;;17.50;6.13;;;;;;;6.40;90.90;103786.38;5092444;28;20492;-58
2023/12/16 03:49:22;;;;;;;11.77;6.68;;;;;;;6.42;91.02;103775.81;5096196;28;20027;-58
2023/12/16 03:51:47;;;;;;;21.15;5.05;;;;;;;6.33;91.03;103771.41;5096148;28;20050;-58
2023/12/16 03:54:13;;;;;;;16.40;5.13;;;;;;;6.41;90.83;103782.84;5114212;28;20061;-59
2023/12/16 03:56:40;;;;;;;20.38;5.97;;;;;;;6.43;90.98;103783.75;5114433;28;20023;-58
2023/12/16 03:59:06;;;;;;;12.30;5.13;;;;;;;6.46;91.50;103778.47;5114351;28;20023;-59
2023/12/16 04:01:33;;;;;;;13.13;5.85;;;;;;;6.47;90.96;103781.97;5095749;28;20052;-58
2023/12/16 04:03:59;;;;;;;14.90;5.35;;;;;;;6.49;91.05;103780.22;5114315;28;20629;-58
2023/12/16 04:06:25;;;;;;;14.75;5.05;;;;;;;6.44;91.30;103771.41;5096033;28;20049;-58
2023/12/16 04:08:51;;;;;;;14.13;5.38;;;;;;;6.50;91.07;103787.28;5095431;28;20474;-59
2023/12/16 04:11:16;;;;;;;14.63;5.25;;;;;;;6.49;91.32;103788.16;5095565;28;20111;-59
2023/12/16 04:13:41;;;;;;;13.30;5.35;;;;;;;6.54;90.73;103784.66;5113552;28;20027;-60
2023/12/16 04:16:07;;;;;;;17.23;6.00;;;;;;;6.55;91.31;103791.69;5114140;28;20059;-58
2023/12/16 04:18:36;;;;;;;11.88;5.00;;;;;;;6.58;91.05;103793.47;5113893;28;20027;-58
2023/12/16 04:21:01;;;;;;;10.48;4.53;;;;;;;6.55;91.33;103788.16;5113692;28;20023;-59
2023/12/16 04:23:27;;;;;;;13.15;5.38;;;;;;;6.48;91.86;103768.78;5112973;28;20425;-58
2023/12/16 04:25:53;;;;;;;18.40;5.90;;;;;;;6.59;90.97;103782.91;5113745;28;20063;-58
2023/12/16 04:28:18;;;;;;;10.63;5.53;;;;;;;6.52;91.49;103775.81;5113350;28;20504;-58
2023/12/16 04:30:43;;;;;;;20.50;6.43;;;;;;;6.59;91.63;103782.91;5113685;28;20590;-59
2023/12/16 04:33:09;;;;;;;16.63;5.20;;;;;;;6.57;91.50;103787.28;5095115;28;20398;-58
2023/12/16 04:35:34;;;;;;;10.27;4.72;;;;;;;6.61;91.40;103790.81;5113764;28;20111;-58
2023/12/16 04:38:00;;;;;;;14.07;5.03;;;;;;;6.57;91.66;103781.13;5095101;28;20386;-58
2023/12/16 04:40:25;;;;;;;14.05;5.50;;;;;;;6.48;91.78;103766.13;5095273;28;20106;-58
2023/12/16 04:42:51;;;;;;;12.57;5.65;;;;;;;6.52;92.13;103767.00;5094909;28;20480;-58
2023/12/16 04:45:16;;;;;;;11.73;5.30;;;;;;;6.51;91.86;103758.19;5095434;28;20039;-58
2023/12/16 04:47:41;;;;;;;18.35;5.43;;;;;;;6.52;92.10;103765.25;5095306;28;20031;-59
2023/12/16 04:50:07;;;;;;;10.75;4.95;;;;;;;6.53;91.93;103766.13;5113607;28;20106;-59
2023/12/16 04:52:32;;;;;;;16.05;5.63;;;;;;;6.43;92.78;103762.59;5095149;28;20027;-58
2023/12/16 04:54:58;;;;;;;17.65;5.93;;;;;;;6.42;92.82;103759.97;5112679;28;20024;-59
2023/12/16 04:57:23;;;;;;;18.10;6.30;;;;;;;6.41;92.98;103764.34;5094680;28;20517;-58
2023/12/16 04:59:49;;;;;;;7.43;4.43;;;;;;;6.45;92.61;103759.97;5094051;28;20030;-59
2023/12/16 05:02:14;;;;;;;19.20;5.15;;;;;;;6.38;93.05;103756.41;5113334;28;20032;-59
2023/12/16 05:04:39;;;;;;;15.60;5.60;;;;;;;6.41;92.89;103766.97;5112804;28;20019;-58
2023/12/16 05:07:05;;;;;;;12.55;5.53;;;;;;;6.40;92.75;103761.72;5113098;28;20491;-59
2023/12/16 05:09:30;;;;;;;17.23;5.95;;;;;;;6.36;93.35;103761.72;5112217;28;20035;-59
2023/12/16 05:11:56;;;;;;;10.18;5.10;;;;;;;6.34;93.56;103770.50;5094509;28;20034;-59
2023/12/16 05:14:22;;;;;;;14.80;5.20;;;;;;;6.31;93.59;103763.44;5094412;28;20066;-58
2023/12/16 05:16:47;;;;;;;12.43;4.95;;;;;;;6.30;93.57;103764.34;5112896;28;20063;-59
2023/12/16 05:19:13;;;;;;;15.70;5.70;;;;;;;6.24;93.59;103764.34;5112577;28;20027;-58
2023/12/16 05:21:39;;;;;;;16.40;5.97;;;;;;;6.25;94.04;103771.38;5094727;28;20027;-58
2023/12/16 05:24:04;;;;;;;19.77;4.95;;;;;;;6.24;94.28;103764.34;5112087;28;20035;-58
2023/12/16 05:26:32;;;;;;;18.02;6.03;;;;;;;6.34;93.24;103774.03;5094302;28;20031;-58
2023/12/16 05:28:57;;;;;;;14.68;5.18;;;;;;;6.25;93.89;103779.31;5093832;28;20508;-58
2023/12/16 05:31:22;;;;;;;11.50;4.63;;;;;;;6.17;94.26;103774.88;5094170;28;20034;-58
2023/12/16 05:33:48;;;;;;;12.63;4.70;;;;;;;6.20;94.28;103783.69;5093826;28;20055;-58
2023/12/16 05:36:14;;;;;;;6.25;3.88;;;;;;;6.19;94.19;103778.41;5111902;28;20098;-58
2023/12/16 05:38:39;;;;;;;12.82;4.63;;;;;;;6.16;94.38;103781.94;5111583;28;20119;-58
2023/12/16 05:41:06;;;;;;;17.38;5.40;;;;;;;6.14;94.49;103783.66;5111902;28;20466;-58
2023/12/16 05:43:31;;;;;;;13.50;5.68;;;;;;;6.11;94.65;103786.31;5094096;28;20019;-59
2023/12/16 05:45:57;;;;;;;17.88;5.03;;;;;;;6.07;94.92;103777.50;5094125;28;20027;-58
2023/12/16 05:48:22;;;;;;;19.35;5.45;;;;;;;6.04;94.49;103776.63;5094077;28;20428;-58
2023/12/16 05:50:48;;;;;;;15.05;4.93;;;;;;;6.05;94.55;103784.53;5093891;28;20023;-58
2023/12/16 05:53:13;;;;;;;22.15;5.60;;;;;;;6.09;94.29;103788.97;5111564;28;20067;-58
2023/12/16 05:55:39;;;;;;;12.93;5.60;;;;;;;6.03;94.84;103772.19;5112129;28;20363;-58
2023/12/16 05:58:04;;;;;;;9.30;4.63;;;;;;;6.01;95.00;103768.69;5093786;28;20110;-58
2023/12/16 06:00:30;;;;;;;14.88;4.90;;;;;;;5.99;95.15;103775.72;5093739;28;20417;-58
2023/12/16 06:02:55;;;;;;;16.17;5.43;;;;;;;5.96;95.32;103771.28;5111803;28;20024;-59
2023/12/16 06:05:22;;;;;;;17.52;5.88;;;;;;;6.00;95.46;103767.81;5093259;28;20031;-58
2023/12/16 06:07:47;;;;;;;11.40;4.93;;;;;;;5.87;95.74;103747.47;5111143;28;20023;-59
2023/12/16 06:10:15;;;;;;;10.55;5.15;;;;;;;5.97;95.43;103766.88;5093363;28;20500;-58
2023/12/16 06:12:43;;;;;;;7.28;4.40;;;;;;;5.96;95.26;103770.41;5110121;28;20024;-58
2023/12/16 06:15:11;;;;;;;11.50;5.30;;;;;;;5.89;95.40;103777.41;5111869;28;20019;-58
2023/12/16 06:17:36;;;;;;;15.35;5.18;;;;;;;5.87;96.15;103785.31;5111841;28;20038;-58
2023/12/16 06:20:01;;;;;;;13.88;4.97;;;;;;;5.84;96.32;103785.31;5111379;28;20031;-59
2023/12/16 06:22:27;;;;;;;11.88;5.10;;;;;;;5.76;96.22;103771.16;5110279;28;20024;-58
2023/12/16 06:24:52;;;;;;;22.92;5.57;;;;;;;5.80;96.79;103774.72;5110928;28;20024;-59
2023/12/16 06:27:20;;;;;;;15.05;5.03;;;;;;;5.82;96.53;103771.19;5093314;28;20422;-58
2023/12/16 06:29:46;;;;;;;18.40;5.68;;;;;;;5.90;95.70;103771.25;5111524;28;20034;-58
2023/12/16 06:32:11;;;;;;;18.90;5.35;;;;;;;5.80;95.92;103761.53;5092845;28;20445;-59
2023/12/16 06:34:36;;;;;;;11.13;4.20;;;;;;;5.86;96.08;103775.63;5092974;28;20039;-59
2023/12/16 06:37:02;;;;;;;19.63;5.53;;;;;;;5.80;96.57;103766.81;5092944;28;20459;-58
2023/12/16 06:39:27;;;;;;;12.18;5.07;;;;;;;5.78;96.52;103777.34;5092362;28;20028;-58
2023/12/16 06:41:53;;;;;;;14.93;4.68;;;;;;;5.76;96.56;103768.53;5092900;28;20026;-58
2023/12/16 06:44:18;;;;;;;16.13;4.90;;;;;;;5.78;96.72;103776.47;5092958;28;20039;-58
2023/12/16 06:46:43;;;;;;;10.15;4.75;;;;;;;5.76;96.77;103768.53;5092758;28;20039;-59
2023/12/16 06:49:11;;;;;;;12.68;5.22;;;;;;;5.70;97.07;103763.22;5111208;28;20077;-58
2023/12/16 06:51:39;;;;;;;10.77;5.05;;;;;;;5.73;96.77;103759.72;5092806;28;20493;-59
2023/12/16 06:54:04;;;;;;;18.67;5.40;;;;;;;5.79;96.49;103780.88;5110562;28;20035;-58
2023/12/16 06:56:32;;;;;;;13.98;4.90;;;;;;;5.63;97.37;103762.31;5111201;28;20034;-58
2023/12/16 06:58:58;;;;;;;14.85;4.97;;;;;;;5.68;97.30;103778.22;5076419;28;20024;-58
2023/12/16 07:01:24;;;;;;;15.43;4.70;;;;;;;5.65;97.63;103773.78;5092822;28;20035;-58
2023/12/16 07:03:49;;;;;;;14.32;5.00;;;;;;;5.63;97.51;103775.53;5111567;28;20107;-58
2023/12/16 07:06:19;;;;;;;12.32;4.95;;;;;;;5.66;97.11;103778.19;5111001;28;20076;-58
2023/12/16 07:08:45;;;;;;;12.27;5.57;;;;;;;5.56;97.71;103771.09;5092191;28;20027;-58
2023/12/16 07:11:14;;;;;;;13.88;5.20;;;;;;;5.60;97.64;103783.44;5092598;28;20047;-58
2023/12/16 07:13:40;;;;;;;8.48;4.22;;;;;;;5.59;97.53;103781.69;5109752;28;20024;-58
2023/12/16 07:16:06;;;;;;;13.00;5.00;;;;;;;5.57;97.78;103788.69;5111465;28;20038;-59
2023/12/16 07:18:32;;;;;;;11.50;4.72;;;;;;;5.59;98.10;103791.34;5111251;28;20035;-58
2023/12/16 07:20:57;;;;;;;16.38;6.30;;;;;;;5.56;98.04;103786.03;5110628;28;20437;-58
2023/12/16 07:23:23;;;;;;;15.55;5.65;;;;;;;5.55;98.06;103794.84;5112920;28;20020;-58
2023/12/16 07:25:50;;;;;;;20.88;5.65;;;;;;;5.59;98.00;103793.97;5115397;28;20160;-58
2023/12/16 07:28:16;;;;;;;17.95;4.78;;;;;;;5.48;98.43;103783.38;5114998;28;20058;-59
2023/12/16 07:30:41;;;;;;;17.02;4.82;;;;;;;5.56;97.88;103797.50;5096779;28;20471;-58
2023/12/16 07:33:09;;;;;;;16.80;5.20;;;;;;;5.53;98.25;103807.13;5114061;28;20039;-58
2023/12/16 07:35:35;;;;;;;15.02;5.25;;;;;;;5.47;97.97;103803.63;5092543;28;20027;-58
2023/12/16 07:38:00;;;;;;;16.17;4.97;;;;;;;5.45;98.29;103808.00;5114078;28;20076;-59
2023/12/16 07:40:26;;;;;;;19.27;4.70;;;;;;;5.56;98.06;103810.72;5114120;28;20458;-59
2023/12/16 07:42:51;;;;;;;13.60;4.45;;;;;;;5.60;97.97;103815.13;5096176;28;20128;-58
2023/12/16 07:45:16;;;;;;;10.52;4.70;;;;;;;5.55;97.77;103810.69;5114514;28;20027;-58
2023/12/16 07:47:42;;;;;;;16.67;5.60;;;;;;;5.56;98.03;103808.06;5114683;28;20546;-58
2023/12/16 07:50:09;;;;;;;18.00;5.03;;;;;;;5.53;98.59;103808.06;5114184;28;20126;-59
2023/12/16 07:52:34;;;;;;;22.02;4.25;;;;;;;5.57;97.66;103815.09;5114148;28;20377;-59
2023/12/16 07:55:02;;;;;;;21.67;5.28;;;;;;;5.58;97.91;103814.22;5095708;28;20023;-58
2023/12/16 07:57:27;;;;;;;13.80;4.97;;;;;;;5.60;97.26;103808.97;5114266;28;20019;-58
2023/12/16 07:59:53;;;;;;;11.85;4.47;;;;;;;5.58;97.92;103811.56;5095920;28;20081;-58
2023/12/16 08:02:19;;;;;;;12.57;4.88;;;;;;;5.59;98.09;103813.34;5114037;28;20028;-58
2023/12/16 08:04:47;;;;;;;16.25;4.80;;;;;;;5.58;98.00;103815.97;5095372;28;20035;-58
2023/12/16 08:07:12;;;;;;;10.40;4.55;;;;;;;5.63;97.87;103824.81;5095492;28;20031;-58
2023/12/16 08:09:37;;;;;;;19.58;4.47;;;;;;;5.62;97.60;103826.56;5106825;28;20039;-58
2023/12/16 08:12:03;;;;;;;13.73;4.65;;;;;;;5.58;98.43;103835.34;5095696;28;20480;-58
2023/12/16 08:14:28;;;;;;;11.82;4.35;;;;;;;5.58;97.74;103821.25;5095716;28;20034;-58
2023/12/16 08:16:54;;;;;;;11.00;5.03;;;;;;;5.64;97.99;103837.13;5095801;28;20038;-58
2023/12/16 08:19:21;;;;;;;16.98;5.32;;;;;;;5.59;98.19;103830.94;5095210;28;20448;-58
2023/12/16 08:21:47;;;;;;;14.38;4.78;;;;;;;5.66;98.08;103840.66;5095390;28;20105;-59
2023/12/16 08:24:13;;;;;;;13.32;4.50;;;;;;;5.67;97.87;103838.03;5113181;28;20024;-59
2023/12/16 08:26:39;;;;;;;17.98;5.05;;;;;;;5.64;98.27;103834.50;5095843;28;20030;-58
2023/12/16 08:29:04;;;;;;;17.70;5.63;;;;;;;5.69;98.30;103840.69;5113690;28;20020;-58
2023/12/16 08:31:30;;;;;;;11.50;4.05;;;;;;;5.74;97.19;103836.31;5112476;28;20067;-58
2023/12/16 08:33:55;;;;;;;12.07;4.55;;;;;;;5.76;98.49;103850.41;5112012;28;20071;-58
2023/12/16 08:36:20;;;;;;;13.93;4.80;;;;;;;5.84;98.21;103853.09;5113026;28;20024;-58
2023/12/16 08:38:46;;;;;;;12.43;4.85;;;;;;;5.91;97.92;103849.59;5113569;28;20106;-58
2023/12/16 08:41:14;;;;;;;15.07;4.28;;;;;;;5.99;97.83;103847.03;5095358;28;20035;-58
2023/12/16 08:43:41;;;;;;;14.10;5.07;;;;;;;6.05;98.02;103845.28;5113457;28;20023;-58
2023/12/16 08:46:07;;;;;;;7.55;4.28;;;;;;;6.09;98.24;103849.72;5113856;28;20038;-58
2023/12/16 08:48:34;;;;;;;19.08;5.53;;;;;;;6.12;98.23;103830.38;5095090;28;20024;-58
2023/12/16 08:50:59;;;;;;;17.42;5.30;;;;;;;6.20;97.96;103838.31;5113333;28;20058;-58
2023/12/16 08:53:25;;;;;;;21.15;4.95;;;;;;;6.20;98.22;103830.38;5094422;28;20466;-58
2023/12/16 08:55:50;;;;;;;17.55;4.38;;;;;;;6.25;98.83;103837.44;5113461;28;20390;-58
2023/12/16 08:58:17;;;;;;;18.20;6.28;;;;;;;6.27;98.17;103827.78;5113023;28;20504;-58
2023/12/16 09:00:44;;;;;;;9.25;3.92;;;;;;;6.33;98.87;103833.06;5113353;28;20030;-58
2023/12/16 09:03:13;;;;;;;16.25;5.00;;;;;;;6.36;98.89;103827.78;5093935;28;20035;-58
2023/12/16 09:05:38;;;;;;;26.52;5.50;;;;;;;6.46;98.71;103830.47;5113147;28;20027;-58
2023/12/16 09:08:04;;;;;;;13.90;5.53;;;;;;;6.47;98.97;103833.13;5094121;28;20031;-59
2023/12/16 09:10:31;;;;;;;10.60;4.75;;;;;;;6.44;99.56;103834.84;5113083;28;20027;-58
2023/12/16 09:12:57;;;;;;;15.32;5.80;;;;;;;6.56;99.10;103856.06;5094472;28;20028;-58
2023/12/16 09:15:23;;;;;;;21.05;4.35;;;;;;;6.60;99.25;103849.88;5094720;28;20077;-58
2023/12/16 09:17:48;;;;;;;20.08;4.40;;;;;;;6.63;99.45;103852.53;5112997;28;20458;-59
2023/12/16 09:20:14;;;;;;;12.75;4.78;;;;;;;6.65;99.69;103855.16;5094543;28;20122;-59
2023/12/16 09:22:40;;;;;;;17.92;5.43;;;;;;;6.68;100.00;103847.25;5077333;28;20039;-59
2023/12/16 09:25:08;;;;;;;16.17;4.60;;;;;;;6.72;99.91;103849.91;5094543;28;20090;-59
2023/12/16 09:27:34;;;;;;;11.43;4.47;;;;;;;6.71;100.00;103839.34;5112788;28;20046;-58
2023/12/16 09:29:59;;;;;;;11.63;5.00;;;;;;;6.82;100.00;103850.78;5094338;28;20070;-59
2023/12/16 09:32:27;;;;;;;15.07;4.60;;;;;;;6.85;99.85;103848.13;5112558;28;20069;-63
2023/12/16 09:34:52;;;;;;;17.00;5.13;;;;;;;6.90;100.00;103858.75;5112222;28;20089;-58
2023/12/16 09:37:17;;;;;;;20.08;5.60;;;;;;;7.05;98.74;103872.84;5112521;28;20055;-59
2023/12/16 09:39:46;;;;;;;20.10;4.90;;;;;;;6.99;99.94;103871.97;5111269;28;20080;-59
2023/12/16 09:42:13;;;;;;;17.48;5.22;;;;;;;7.00;100.00;103873.72;5109607;28;20032;-58
2023/12/16 09:44:41;;;;;;;21.55;5.28;;;;;;;7.02;100.00;103879.91;5112168;28;20486;-58
2023/12/16 09:47:11;;;;;;;10.65;4.88;;;;;;;6.89;100.00;103849.06;5112949;28;20416;-58
2023/12/16 09:49:38;;;;;;;21.95;5.18;;;;;;;7.16;99.20;103869.34;5095016;28;20558;-58
2023/12/16 09:52:04;;;;;;;10.38;4.78;;;;;;;7.06;99.58;103855.25;5112899;28;20026;-58
2023/12/16 09:54:30;;;;;;;12.30;4.50;;;;;;;7.19;98.93;103861.41;5112480;28;20032;-58
2023/12/16 09:56:57;;;;;;;19.63;4.88;;;;;;;7.08;100.00;103868.44;5112998;28;20031;-58
2023/12/16 09:59:25;;;;;;;16.92;5.68;;;;;;;7.16;100.00;103875.50;5113004;28;20489;-58
2023/12/16 10:01:53;;;;;;;23.20;5.93;;;;;;;7.19;100.00;103875.50;5112734;28;20015;-58
2023/12/16 10:04:21;;;;;;;14.57;4.70;;;;;;;7.32;99.62;103883.44;5112685;28;20016;-58
2023/12/16 10:06:47;;;;;;;16.17;4.95;;;;;;;7.22;100.00;103882.56;5112915;28;20023;-58
2023/12/16 10:09:14;;;;;;;13.18;5.70;;;;;;;7.31;100.00;103886.97;5093885;28;20534;-58
2023/12/16 10:11:41;;;;;;;18.83;4.78;;;;;;;7.35;100.00;103888.72;5112434;28;20068;-58
2023/12/16 10:14:06;;;;;;;19.15;6.20;;;;;;;7.37;100.00;103890.50;5112543;28;20023;-58
2023/12/16 10:16:32;;;;;;;10.82;4.65;;;;;;;7.42;100.00;103887.88;5094346;28;20026;-58
2023/12/16 10:18:58;;;;;;;19.80;6.63;;;;;;;7.37;100.00;103885.22;5094332;28;20023;-58
2023/12/16 10:21:29;;;;;;;20.85;5.93;;;;;;;7.47;100.00;103891.38;5112673;28;20019;-58
2023/12/16 10:23:59;;;;;;;17.85;5.50;;;;;;;7.46;100.00;103887.84;5112255;28;20059;-59
2023/12/16 10:26:25;;;;;;;15.38;6.07;;;;;;;7.48;100.00;103891.38;5112551;28;20110;-58
2023/12/16 10:28:53;;;;;;;17.08;5.50;;;;;;;7.60;100.00;103890.47;5112521;28;20107;-58
2023/12/16 10:31:18;;;;;;;16.65;5.07;;;;;;;7.62;100.00;103883.44;5112251;28;20424;-58
2023/12/16 10:33:50;;;;;;;11.45;5.43;;;;;;;7.49;100.00;103876.38;5093807;28;20043;-58
2023/12/16 10:36:16;;;;;;;19.00;5.57;;;;;;;7.53;100.00;103893.13;5094434;28;20019;-59
2023/12/16 10:38:42;;;;;;;14.35;5.75;;;;;;;7.66;100.00;103892.25;5093739;28;20048;-58
2023/12/16 10:41:08;;;;;;;18.83;5.80;;;;;;;7.61;100.00;103888.72;5094244;28;20507;-58
2023/12/16 10:43:34;;;;;;;20.08;6.50;;;;;;;7.58;100.00;103883.41;5112186;28;20474;-58
2023/12/16 10:46:04;;;;;;;14.35;6.22;;;;;;;7.62;100.00;103877.25;5093869;28;20027;-59
2023/12/16 10:48:33;;;;;;;16.13;5.65;;;;;;;7.79;100.00;103878.06;5093892;28;20027;-59
2023/12/16 10:51:01;;;;;;;14.38;4.43;;;;;;;7.78;100.00;103872.78;5112265;28;20027;-58
2023/12/16 10:53:44;;;;;;;14.77;5.25;;;;;;;7.72;100.00;103881.63;5111462;28;20023;-59
2023/12/16 10:56:36;;;;;;;20.80;6.70;;;;;;;7.76;100.00;103874.56;5112143;28;20027;-58
2023/12/16 10:59:08;;;;;;;18.83;5.63;;;;;;;7.71;100.00;103864.00;5111836;28;20030;-59
2023/12/16 11:01:45;;;;;;;15.82;5.25;;;;;;;7.81;100.00;103864.84;5093663;28;20019;-59
2023/12/16 11:04:15;;;;;;;13.75;6.13;;;;;;;7.78;100.00;103867.50;5093792;28;20032;-59
2023/12/16 11:06:55;;;;;;;22.27;7.95;;;;;;;7.79;100.00;103861.28;5077457;28;20484;-58
2023/12/16 11:09:21;;;;;;;17.75;6.15;;;;;;;7.82;100.00;103863.94;5112136;28;20123;-58
2023/12/16 11:11:48;;;;;;;24.27;7.05;;;;;;;7.83;100.00;103857.78;5112093;28;20050;-58
2023/12/16 11:14:15;;;;;;;21.38;6.93;;;;;;;7.97;100.00;103855.94;5093308;28;20181;-59
2023/12/16 11:16:52;;;;;;;18.95;6.65;;;;;;;7.93;100.00;103847.13;5112119;28;20079;-58
2023/12/16 11:19:22;;;;;;;15.20;6.15;;;;;;;7.81;100.00;103838.34;5111838;28;20036;-58